Time;durP1;ratioP1;P1;durP2;ratioP2;P2;SDS_P1;SDS_P2;PMS_P1;PMS_P2;Temp;Humidity;BMP_temperature;BMP_pressure;BME280_temperature;BME280_humidity;BME280_pressure;Samples;Min_cycle;Max_cycle;Signal;HPM_P1;HPM_P2
2023/11/22 00:01:16;;;;;;;23.08;13.77;;;6.90;91.20;;;;;;4998076;28;20121;-74
2023/11/22 00:03:42;;;;;;;27.42;14.27;;;6.90;91.30;;;;;;5015558;28;20422;-74
2023/11/22 00:06:08;;;;;;;25.55;14.10;;;6.90;91.30;;;;;;5015450;28;20038;-74
2023/11/22 00:08:34;;;;;;;23.23;13.13;;;6.90;91.30;;;;;;5015298;28;20088;-74
2023/11/22 00:10:59;;;;;;;19.50;12.13;;;6.80;91.00;;;;;;5015315;28;20382;-75
2023/11/22 00:13:25;;;;;;;20.63;13.52;;;6.90;91.20;;;;;;5015270;28;20028;-76
2023/11/22 00:15:51;;;;;;;27.08;14.43;;;6.90;91.10;;;;;;5015386;28;20080;-74
2023/11/22 00:18:16;;;;;;;21.20;12.70;;;6.90;91.00;;;;;;4997433;28;20064;-74
2023/11/22 00:20:42;;;;;;;24.92;12.02;;;6.90;91.10;;;;;;5015092;28;20440;-74
2023/11/22 00:23:08;;;;;;;25.45;12.73;;;6.90;90.90;;;;;;5015177;28;20049;-75
2023/11/22 00:25:33;;;;;;;22.67;13.23;;;7.00;90.70;;;;;;5015148;28;20066;-74
2023/11/22 00:27:59;;;;;;;22.73;13.35;;;7.00;90.70;;;;;;5015144;28;20490;-74
2023/11/22 00:30:24;;;;;;;27.30;13.88;;;7.00;90.40;;;;;;5014794;28;20037;-72
2023/11/22 00:32:51;;;;;;;27.58;14.05;;;7.00;90.30;;;;;;5014692;28;20033;-74
2023/11/22 00:35:16;;;;;;;20.90;12.52;;;7.00;90.30;;;;;;5015032;28;20406;-73
2023/11/22 00:37:42;;;;;;;22.10;13.05;;;7.00;90.30;;;;;;5014986;28;20022;-73
2023/11/22 00:40:11;;;;;;;21.25;13.70;;;7.00;90.40;;;;;;5014581;28;20018;-73
2023/11/22 00:42:39;;;;;;;23.33;13.88;;;7.00;90.20;;;;;;5014823;28;20045;-74
2023/11/22 00:45:05;;;;;;;19.48;11.85;;;7.10;90.00;;;;;;5014662;28;20483;-73
2023/11/22 00:47:32;;;;;;;14.90;10.90;;;7.00;89.90;;;;;;5014764;28;20037;-73
2023/11/22 00:49:58;;;;;;;20.02;12.35;;;7.10;90.10;;;;;;5014437;28;20026;-72
2023/11/22 00:52:24;;;;;;;23.70;11.68;;;7.20;89.90;;;;;;5014664;28;20018;-73
2023/11/22 00:54:49;;;;;;;19.63;11.35;;;7.20;89.80;;;;;;5014407;28;20071;-73
2023/11/22 00:57:15;;;;;;;19.90;11.80;;;7.20;89.40;;;;;;5014231;28;20125;-74
2023/11/22 00:59:41;;;;;;;17.60;11.35;;;7.20;89.30;;;;;;5014540;28;20447;-73
2023/11/22 01:02:08;;;;;;;16.27;11.60;;;7.20;89.00;;;;;;5014482;28;20034;-73
2023/11/22 01:04:35;;;;;;;18.55;11.68;;;7.20;89.20;;;;;;4996817;28;20124;-72
2023/11/22 01:07:01;;;;;;;13.50;9.90;;;7.20;89.00;;;;;;5014297;28;20034;-73
2023/11/22 01:09:28;;;;;;;15.77;11.13;;;7.20;89.00;;;;;;5014291;28;20393;-73
2023/11/22 01:11:54;;;;;;;19.33;10.75;;;7.30;89.10;;;;;;5014239;28;20026;-72
2023/11/22 01:14:19;;;;;;;19.77;12.10;;;7.30;88.70;;;;;;5014233;28;20022;-74
2023/11/22 01:16:45;;;;;;;16.60;11.80;;;7.30;88.90;;;;;;5014300;28;20418;-73
2023/11/22 01:19:11;;;;;;;16.95;11.90;;;7.40;89.50;;;;;;5014210;28;20075;-72
2023/11/22 01:21:37;;;;;;;15.95;10.88;;;7.30;88.50;;;;;;5014167;28;20104;-72
2023/11/22 01:24:02;;;;;;;17.05;10.77;;;7.40;88.50;;;;;;4996570;28;20037;-72
2023/11/22 01:26:28;;;;;;;23.05;12.63;;;7.40;88.60;;;;;;5013969;28;20045;-73
2023/11/22 01:28:53;;;;;;;19.80;11.63;;;7.40;88.10;;;;;;5013850;28;20133;-74
2023/11/22 01:31:23;;;;;;;20.00;12.52;;;7.30;88.20;;;;;;5013896;28;20510;-75
2023/11/22 01:33:48;;;;;;;17.13;12.00;;;7.30;88.50;;;;;;5013868;28;20018;-73
2023/11/22 01:36:15;;;;;;;17.15;11.15;;;7.30;88.60;;;;;;5013811;28;20073;-72
2023/11/22 01:38:41;;;;;;;21.27;13.90;;;7.30;88.50;;;;;;5013870;28;20097;-73
2023/11/22 01:41:07;;;;;;;20.38;12.05;;;7.30;88.50;;;;;;5013807;28;20057;-73
2023/11/22 01:43:32;;;;;;;18.35;12.55;;;7.20;88.90;;;;;;5013041;28;20029;-72
2023/11/22 01:45:58;;;;;;;20.13;13.50;;;7.20;89.00;;;;;;5013520;28;20029;-72
2023/11/22 01:48:25;;;;;;;22.05;13.20;;;7.20;89.10;;;;;;5013719;28;20022;-72
2023/11/22 01:50:51;;;;;;;20.38;13.88;;;7.10;89.30;;;;;;4995869;28;20386;-72
2023/11/22 01:53:17;;;;;;;23.48;13.45;;;7.10;89.80;;;;;;5013451;28;20022;-72
2023/11/22 01:55:46;;;;;;;17.20;11.30;;;7.10;89.80;;;;;;5013605;28;20026;-73
2023/11/22 01:58:12;;;;;;;16.60;12.25;;;7.10;89.70;;;;;;5013388;28;20054;-72
2023/11/22 02:00:59;;;;;;;21.38;13.23;;;7.10;89.70;;;;;;5013480;28;20149;-72
2023/11/22 02:03:24;;;;;;;20.20;13.82;;;7.10;89.70;;;;;;4995768;28;20490;-73
2023/11/22 02:05:50;;;;;;;17.20;11.60;;;7.00;89.50;;;;;;5013313;28;20030;-72
2023/11/22 02:08:17;;;;;;;18.90;13.70;;;7.00;89.80;;;;;;5013553;28;20022;-73
2023/11/22 02:10:44;;;;;;;19.30;12.70;;;7.00;89.90;;;;;;5013298;28;20033;-72
2023/11/22 02:13:10;;;;;;;18.83;12.40;;;7.00;90.10;;;;;;5013220;28;20025;-73
2023/11/22 02:15:36;;;;;;;17.80;12.57;;;7.00;90.10;;;;;;5013195;28;20030;-73
2023/11/22 02:18:06;;;;;;;17.38;12.98;;;7.10;90.20;;;;;;4995499;28;20112;-72
2023/11/22 02:20:32;;;;;;;15.90;11.75;;;7.00;90.00;;;;;;5013160;28;20101;-73
2023/11/22 02:23:07;;;;;;;14.90;11.43;;;7.10;90.20;;;;;;5013142;28;20053;-73
2023/11/22 02:25:33;;;;;;;14.82;11.45;;;7.00;90.00;;;;;;5013056;28;20049;-72
2023/11/22 02:27:59;;;;;;;9.18;6.88;;;7.00;90.00;;;;;;5012993;28;20107;-72
2023/11/22 02:30:25;;;;;;;3.60;3.20;;;6.90;90.00;;;;;;5013027;28;20046;-72
2023/11/22 02:32:51;;;;;;;2.78;2.20;;;6.80;88.40;;;;;;5012988;28;20040;-73
2023/11/22 02:35:17;;;;;;;2.38;2.00;;;6.60;88.30;;;;;;5012985;28;20037;-73
2023/11/22 02:37:45;;;;;;;2.00;1.75;;;6.40;88.50;;;;;;5012796;28;20027;-72
2023/11/22 02:40:21;;;;;;;2.15;1.95;;;6.10;89.30;;;;;;5013088;28;20101;-72
2023/11/22 02:42:51;;;;;;;5.25;2.50;;;6.10;89.50;;;;;;5012992;28;20040;-74
2023/11/22 02:45:18;;;;;;;3.95;2.80;;;5.90;90.10;;;;;;5013049;28;20076;-73
2023/11/22 02:47:44;;;;;;;3.20;2.90;;;5.80;90.70;;;;;;5013060;28;20090;-72
2023/11/22 02:50:11;;;;;;;5.05;3.67;;;5.60;91.00;;;;;;5012698;28;20022;-73
2023/11/22 02:52:37;;;;;;;5.32;3.65;;;5.50;91.50;;;;;;5012679;28;20030;-72
2023/11/22 02:55:04;;;;;;;5.45;3.47;;;5.50;91.70;;;;;;5015000;28;20108;-72
2023/11/22 02:57:31;;;;;;;5.53;4.93;;;5.50;91.80;;;;;;5016132;28;20141;-74
2023/11/22 02:59:57;;;;;;;6.00;5.32;;;5.50;91.80;;;;;;5016570;28;20483;-74
2023/11/22 03:02:22;;;;;;;5.70;4.57;;;5.50;91.80;;;;;;5016553;28;20068;-74
2023/11/22 03:04:48;;;;;;;4.82;4.32;;;5.50;92.00;;;;;;5016601;28;20022;-73
2023/11/22 03:07:13;;;;;;;4.50;4.10;;;5.50;91.80;;;;;;5016304;28;20034;-74
2023/11/22 03:09:41;;;;;;;4.47;4.05;;;5.50;92.10;;;;;;5016600;28;20026;-73
2023/11/22 03:12:08;;;;;;;5.38;4.57;;;5.50;91.20;;;;;;4998868;28;20026;-74
2023/11/22 03:14:35;;;;;;;5.10;4.60;;;5.60;91.10;;;;;;4996887;28;20022;-73
2023/11/22 03:17:00;;;;;;;5.75;5.07;;;5.60;90.70;;;;;;4996768;28;20018;-73
2023/11/22 03:19:26;;;;;;;7.40;5.07;;;5.60;90.30;;;;;;4996841;28;20521;-73
2023/11/22 03:21:52;;;;;;;7.43;4.78;;;5.60;90.10;;;;;;4996695;28;20019;-73
2023/11/22 03:24:17;;;;;;;6.10;5.18;;;5.60;89.70;;;;;;4996583;28;20153;-73
2023/11/22 03:26:43;;;;;;;6.53;5.43;;;5.50;89.60;;;;;;4996294;28;20502;-73
2023/11/22 03:29:08;;;;;;;5.50;4.85;;;5.50;89.70;;;;;;4996440;28;20022;-72
2023/11/22 03:31:34;;;;;;;5.10;4.60;;;5.40;89.50;;;;;;4996665;28;20069;-72
2023/11/22 03:33:59;;;;;;;6.47;5.28;;;5.40;89.50;;;;;;4996496;28;20057;-72
2023/11/22 03:36:25;;;;;;;7.95;5.80;;;5.30;89.60;;;;;;4996538;28;20030;-73
2023/11/22 03:38:51;;;;;;;7.60;6.47;;;5.20;90.00;;;;;;4996388;28;20072;-72
2023/11/22 03:41:17;;;;;;;8.57;7.28;;;5.10;90.50;;;;;;4979205;28;20110;-74
2023/11/22 03:43:43;;;;;;;8.60;6.80;;;5.00;90.80;;;;;;4996195;28;20031;-73
2023/11/22 03:46:11;;;;;;;7.72;6.78;;;4.90;91.30;;;;;;4996241;28;20041;-73
2023/11/22 03:48:37;;;;;;;8.80;7.07;;;4.90;91.50;;;;;;4995851;28;20042;-73
2023/11/22 03:51:02;;;;;;;6.50;5.55;;;4.90;91.60;;;;;;4995998;28;20061;-73
2023/11/22 03:53:28;;;;;;;7.00;6.10;;;4.90;91.40;;;;;;4995996;28;20023;-73
2023/11/22 03:55:54;;;;;;;9.95;7.35;;;4.90;91.30;;;;;;4996014;28;20022;-74
2023/11/22 03:58:19;;;;;;;9.60;7.57;;;4.90;91.10;;;;;;4978200;28;20050;-75
2023/11/22 04:00:45;;;;;;;11.57;7.45;;;4.80;90.80;;;;;;4996054;28;20023;-73
2023/11/22 04:03:10;;;;;;;9.40;7.63;;;4.80;90.20;;;;;;4995890;28;20026;-75
2023/11/22 04:05:36;;;;;;;10.38;7.97;;;4.60;89.30;;;;;;4995112;28;20039;-76
2023/11/22 04:08:02;;;;;;;8.57;7.53;;;4.50;89.50;;;;;;4995677;28;20076;-74
2023/11/22 04:10:27;;;;;;;8.50;7.57;;;4.40;89.20;;;;;;4995856;28;20037;-73
2023/11/22 04:12:53;;;;;;;9.27;7.97;;;4.40;89.30;;;;;;4995757;28;20030;-73
2023/11/22 04:15:18;;;;;;;11.23;8.13;;;4.20;89.20;;;;;;5005677;28;20120;-73
2023/11/22 04:17:45;;;;;;;9.25;7.53;;;4.30;89.30;;;;;;5015378;28;20445;-73
2023/11/22 04:20:10;;;;;;;9.15;7.50;;;4.30;89.30;;;;;;5015461;28;20037;-72
2023/11/22 04:22:47;;;;;;;8.20;6.32;;;4.30;89.20;;;;;;5015222;28;20022;-72
2023/11/22 04:25:13;;;;;;;8.57;6.60;;;4.10;88.10;;;;;;5015216;28;20022;-72
2023/11/22 04:27:39;;;;;;;8.38;6.90;;;4.10;87.90;;;;;;5015299;28;20032;-73
2023/11/22 04:30:17;;;;;;;7.20;5.85;;;3.90;87.80;;;;;;5015190;28;20026;-73
2023/11/22 04:32:43;;;;;;;9.63;6.00;;;3.80;87.80;;;;;;5015146;28;20028;-73
2023/11/22 04:35:09;;;;;;;7.05;5.53;;;3.80;87.60;;;;;;4997770;28;20021;-72
2023/11/22 04:37:35;;;;;;;9.57;6.80;;;3.70;88.00;;;;;;5014935;28;20076;-74
2023/11/22 04:40:03;;;;;;;7.68;6.38;;;3.50;87.80;;;;;;5015051;28;20022;-72
2023/11/22 04:42:28;;;;;;;7.13;6.05;;;3.50;88.10;;;;;;5014800;28;20032;-72
2023/11/22 04:44:55;;;;;;;8.65;5.82;;;3.50;88.20;;;;;;5014768;28;20092;-72
2023/11/22 04:47:22;;;;;;;8.30;6.53;;;3.40;88.10;;;;;;5014510;28;20038;-72
2023/11/22 04:49:48;;;;;;;8.65;6.20;;;3.50;88.20;;;;;;5014504;28;20032;-73
2023/11/22 04:52:13;;;;;;;8.73;5.70;;;3.40;87.70;;;;;;5014476;28;20029;-73
2023/11/22 04:54:39;;;;;;;10.68;5.80;;;3.40;88.00;;;;;;5014507;28;20467;-73
2023/11/22 04:57:05;;;;;;;7.85;5.43;;;3.40;87.90;;;;;;5014346;28;20510;-73
2023/11/22 04:59:31;;;;;;;8.90;6.32;;;3.40;87.70;;;;;;5014565;28;20022;-73
2023/11/22 05:01:57;;;;;;;7.32;5.90;;;3.50;87.70;;;;;;5014469;28;20046;-73
2023/11/22 05:04:23;;;;;;;10.45;6.47;;;3.50;87.60;;;;;;5014188;28;20033;-73
2023/11/22 05:06:48;;;;;;;7.13;5.80;;;3.50;86.80;;;;;;5014146;28;20509;-73
2023/11/22 05:09:14;;;;;;;8.70;5.93;;;3.50;86.70;;;;;;4996665;28;20022;-73
2023/11/22 05:11:44;;;;;;;6.05;5.10;;;3.50;86.50;;;;;;5014283;28;20030;-73
2023/11/22 05:14:10;;;;;;;7.30;5.55;;;3.50;86.90;;;;;;4997263;28;20026;-74
2023/11/22 05:16:36;;;;;;;6.18;4.97;;;3.40;86.40;;;;;;5014184;28;20026;-73
2023/11/22 05:19:01;;;;;;;6.93;5.30;;;3.40;86.80;;;;;;5013124;28;20044;-73
2023/11/22 05:21:27;;;;;;;7.07;4.80;;;3.40;86.60;;;;;;5014148;28;20382;-73
2023/11/22 05:23:54;;;;;;;6.93;4.93;;;3.50;86.80;;;;;;5014005;28;20033;-73
2023/11/22 05:26:20;;;;;;;5.65;4.00;;;3.40;86.90;;;;;;5013941;28;20033;-73
2023/11/22 05:28:47;;;;;;;6.35;4.72;;;3.30;87.00;;;;;;5013900;28;20332;-73
2023/11/22 05:31:14;;;;;;;8.18;4.85;;;3.30;87.10;;;;;;5014062;28;20030;-74
2023/11/22 05:33:39;;;;;;;5.05;4.43;;;3.30;87.20;;;;;;4996573;28;20022;-74
2023/11/22 05:36:06;;;;;;;7.55;4.80;;;3.30;87.00;;;;;;5014056;28;20402;-73
2023/11/22 05:38:33;;;;;;;9.43;6.10;;;3.30;87.10;;;;;;5013977;28;20094;-73
2023/11/22 05:40:59;;;;;;;8.50;5.85;;;3.30;87.30;;;;;;5013878;28;20049;-74
2023/11/22 05:43:26;;;;;;;9.40;6.18;;;3.40;87.40;;;;;;5013902;28;20025;-73
2023/11/22 05:45:52;;;;;;;6.78;5.07;;;3.50;86.90;;;;;;5013858;28;20685;-73
2023/11/22 05:48:19;;;;;;;7.32;5.68;;;3.50;86.50;;;;;;4996084;28;20048;-74
2023/11/22 05:50:45;;;;;;;7.35;5.57;;;3.50;86.50;;;;;;5013676;28;20050;-74
2023/11/22 05:53:11;;;;;;;10.68;5.90;;;3.50;86.00;;;;;;5013641;28;20029;-73
2023/11/22 05:55:37;;;;;;;11.50;7.25;;;3.40;85.50;;;;;;5013568;28;20026;-74
2023/11/22 05:58:03;;;;;;;8.50;6.05;;;3.40;86.00;;;;;;5013352;28;20050;-74
2023/11/22 06:00:29;;;;;;;7.78;6.10;;;3.20;85.60;;;;;;5013436;28;20052;-73
2023/11/22 06:02:55;;;;;;;8.38;6.00;;;3.30;86.20;;;;;;5013247;28;20030;-73
2023/11/22 06:05:21;;;;;;;12.23;7.93;;;3.40;86.10;;;;;;5013426;28;20049;-73
2023/11/22 06:07:47;;;;;;;9.70;6.82;;;3.40;85.70;;;;;;5013373;28;20634;-73
2023/11/22 06:10:14;;;;;;;10.38;7.78;;;3.50;85.70;;;;;;5013289;28;20026;-74
2023/11/22 06:12:39;;;;;;;11.60;7.57;;;3.50;85.20;;;;;;4995735;28;20030;-74
2023/11/22 06:15:06;;;;;;;10.13;7.40;;;3.50;85.00;;;;;;5013348;28;20033;-74
2023/11/22 06:17:31;;;;;;;11.63;8.02;;;3.40;85.20;;;;;;5013056;28;20073;-74
2023/11/22 06:19:57;;;;;;;9.23;7.13;;;3.50;85.30;;;;;;5013133;28;20058;-74
2023/11/22 06:22:22;;;;;;;12.35;7.40;;;3.50;85.40;;;;;;5013053;28;20386;-74
2023/11/22 06:24:48;;;;;;;8.82;6.75;;;3.60;85.10;;;;;;5012986;28;20084;-74
2023/11/22 06:27:15;;;;;;;9.43;7.03;;;3.60;84.40;;;;;;5012879;28;20116;-74
2023/11/22 06:29:44;;;;;;;10.45;8.68;;;3.70;84.60;;;;;;4994561;28;20029;-74
2023/11/22 06:32:09;;;;;;;13.82;8.25;;;3.70;84.10;;;;;;4995448;28;20061;-74
2023/11/22 06:34:36;;;;;;;12.82;7.07;;;3.70;84.00;;;;;;5012882;28;20438;-73
2023/11/22 06:37:02;;;;;;;9.98;7.53;;;3.70;83.40;;;;;;5012746;28;20026;-73
2023/11/22 06:39:27;;;;;;;8.85;6.90;;;3.70;84.30;;;;;;5013069;28;20034;-74
2023/11/22 06:41:53;;;;;;;8.95;5.65;;;3.70;82.80;;;;;;4995291;28;20177;-73
2023/11/22 06:44:19;;;;;;;7.05;5.70;;;3.70;82.50;;;;;;5012638;28;20026;-73
2023/11/22 06:46:44;;;;;;;9.40;7.05;;;3.60;81.60;;;;;;5012307;28;20100;-73
2023/11/22 06:49:10;;;;;;;9.55;6.43;;;3.60;82.00;;;;;;4994942;28;20418;-74
2023/11/22 06:51:35;;;;;;;9.75;7.13;;;3.70;82.20;;;;;;5012267;28;20025;-74
2023/11/22 06:54:01;;;;;;;8.85;6.75;;;3.70;82.10;;;;;;4994917;28;20022;-74
2023/11/22 06:56:27;;;;;;;7.85;6.50;;;3.70;82.20;;;;;;5012535;28;20442;-74
2023/11/22 06:58:53;;;;;;;12.57;7.00;;;3.70;82.30;;;;;;4994843;28;20450;-74
2023/11/22 07:01:23;;;;;;;7.40;5.90;;;3.80;81.40;;;;;;4994925;28;20018;-74
2023/11/22 07:03:49;;;;;;;10.77;6.30;;;3.70;81.40;;;;;;5012582;28;20072;-74
2023/11/22 07:06:14;;;;;;;9.68;6.25;;;3.80;81.60;;;;;;4994851;28;20034;-72
2023/11/22 07:08:40;;;;;;;12.13;7.15;;;3.70;81.90;;;;;;4994899;28;20026;-73
2023/11/22 07:11:09;;;;;;;8.75;6.95;;;3.80;82.30;;;;;;5012424;28;20068;-72
2023/11/22 07:13:38;;;;;;;8.70;6.63;;;3.80;82.00;;;;;;5012632;28;20050;-73
2023/11/22 07:16:04;;;;;;;8.43;6.07;;;3.70;81.90;;;;;;5012433;28;20402;-74
2023/11/22 07:18:31;;;;;;;8.88;6.32;;;3.70;81.60;;;;;;4994647;28;20367;-74
2023/11/22 07:20:56;;;;;;;9.27;6.35;;;3.60;81.40;;;;;;5003509;28;20018;-73
2023/11/22 07:23:27;;;;;;;9.32;7.05;;;3.60;81.60;;;;;;4992859;28;20030;-72
2023/11/22 07:25:52;;;;;;;9.65;5.55;;;3.60;81.30;;;;;;4992827;28;20088;-73
2023/11/22 07:28:18;;;;;;;8.07;5.97;;;3.50;80.80;;;;;;4992828;28;20034;-75
2023/11/22 07:30:44;;;;;;;11.85;6.60;;;3.40;80.60;;;;;;4975445;28;20034;-74
2023/11/22 07:33:10;;;;;;;7.72;6.10;;;3.40;81.30;;;;;;4975775;28;20426;-74
2023/11/22 07:35:36;;;;;;;10.27;6.15;;;3.40;81.20;;;;;;4975714;28;20073;-74
2023/11/22 07:38:03;;;;;;;8.43;5.85;;;3.40;81.20;;;;;;4992884;28;20031;-75
2023/11/22 07:40:29;;;;;;;8.48;5.43;;;3.40;80.90;;;;;;4975629;28;20105;-74
2023/11/22 07:42:54;;;;;;;7.82;5.40;;;3.50;81.20;;;;;;4995789;28;20057;-73
2023/11/22 07:45:20;;;;;;;5.95;4.90;;;3.60;80.70;;;;;;4996273;28;20023;-74
2023/11/22 07:47:47;;;;;;;7.95;4.70;;;3.60;80.10;;;;;;4996156;28;20117;-74
2023/11/22 07:50:12;;;;;;;6.90;4.60;;;3.50;79.70;;;;;;4996192;28;20383;-74
2023/11/22 07:52:40;;;;;;;9.10;5.00;;;3.60;79.60;;;;;;4978511;28;20022;-74
2023/11/22 07:55:07;;;;;;;7.88;6.18;;;3.60;80.40;;;;;;4996120;28;20027;-74
2023/11/22 07:57:34;;;;;;;8.32;5.60;;;3.70;80.20;;;;;;4995959;28;20046;-73
2023/11/22 08:00:00;;;;;;;6.88;5.07;;;3.70;80.60;;;;;;4996119;28;20034;-73
2023/11/22 08:02:26;;;;;;;8.68;5.53;;;3.90;80.50;;;;;;4995881;28;20029;-75
2023/11/22 08:04:52;;;;;;;7.90;5.63;;;3.90;79.70;;;;;;4995828;28;20019;-73
2023/11/22 08:07:18;;;;;;;6.78;5.25;;;3.90;79.40;;;;;;4995889;28;20440;-73
2023/11/22 08:09:44;;;;;;;6.78;5.03;;;4.00;79.60;;;;;;4995835;28;20387;-74
2023/11/22 08:12:11;;;;;;;12.13;7.35;;;4.00;79.40;;;;;;4978457;28;20091;-83
2023/11/22 08:14:37;;;;;;;10.27;8.18;;;4.30;87.20;;;;;;4995988;28;20090;-73
2023/11/22 08:17:03;;;;;;;11.32;7.15;;;4.90;92.90;;;;;;4995671;28;20488;-75
2023/11/22 08:19:29;;;;;;;9.23;5.82;;;5.20;89.30;;;;;;4995365;28;20025;-75
2023/11/22 08:21:55;;;;;;;9.55;6.13;;;5.30;81.10;;;;;;4978509;28;20109;-75
2023/11/22 08:24:20;;;;;;;8.77;6.35;;;5.50;79.50;;;;;;5003601;28;20041;-87
2023/11/22 08:26:46;;;;;;;8.88;6.15;;;5.60;76.90;;;;;;5000424;28;20058;-73
2023/11/22 08:29:14;;;;;;;6.85;5.65;;;5.60;75.90;;;;;;4981336;28;20019;-80
2023/11/22 08:31:40;;;;;;;10.65;7.22;;;5.60;75.00;;;;;;4998382;28;20042;-72
2023/11/22 08:34:06;;;;;;;12.68;7.40;;;5.80;76.70;;;;;;4996166;28;20030;-73
2023/11/22 08:36:34;;;;;;;10.80;6.90;;;6.00;75.90;;;;;;4978735;28;20022;-72
2023/11/22 08:39:00;;;;;;;9.95;6.53;;;6.20;73.80;;;;;;4995176;28;20018;-72
2023/11/22 08:41:30;;;;;;;13.75;7.88;;;6.40;72.60;;;;;;4995208;28;20057;-75
2023/11/22 08:43:57;;;;;;;13.35;6.75;;;6.50;71.00;;;;;;4995082;28;20050;-73
2023/11/22 08:46:23;;;;;;;14.23;7.60;;;6.40;72.20;;;;;;4999696;28;20679;-83
2023/11/22 08:48:52;;;;;;;11.45;8.25;;;6.50;71.80;;;;;;4978681;28;20027;-74
2023/11/22 08:51:18;;;;;;;8.35;6.15;;;6.70;70.20;;;;;;4995452;28;20034;-72
2023/11/22 08:53:44;;;;;;;7.72;6.00;;;6.90;69.00;;;;;;4994871;28;20487;-72
2023/11/22 08:56:11;;;;;;;11.00;5.85;;;7.20;68.20;;;;;;4994892;28;20164;-73
2023/11/22 08:58:39;;;;;;;10.45;6.20;;;7.30;67.60;;;;;;4994698;28;20105;-73
2023/11/22 09:01:06;;;;;;;7.93;6.65;;;7.00;66.50;;;;;;4994977;28;20030;-73
2023/11/22 09:03:33;;;;;;;5.90;5.05;;;6.70;67.10;;;;;;4994949;28;20069;-75
2023/11/22 09:06:00;;;;;;;6.25;5.28;;;6.10;67.00;;;;;;4994713;28;20497;-75
2023/11/22 09:08:25;;;;;;;8.73;5.50;;;5.70;69.50;;;;;;4994727;28;20023;-74
2023/11/22 09:10:51;;;;;;;8.77;5.90;;;5.30;70.20;;;;;;4994508;28;20122;-76
2023/11/22 09:13:16;;;;;;;7.18;5.63;;;5.20;71.90;;;;;;4994532;28;20070;-75
2023/11/22 09:15:44;;;;;;;8.63;5.43;;;5.10;72.30;;;;;;4994835;28;20049;-73
2023/11/22 09:18:10;;;;;;;7.25;6.20;;;5.00;72.60;;;;;;4994711;28;20021;-76
2023/11/22 09:20:36;;;;;;;6.63;5.88;;;4.90;72.70;;;;;;4994823;28;20113;-76
2023/11/22 09:23:04;;;;;;;7.50;4.85;;;4.80;73.30;;;;;;4993847;28;20110;-74
2023/11/22 09:25:30;;;;;;;7.40;4.70;;;4.70;72.70;;;;;;4993887;28;20113;-75
2023/11/22 09:27:59;;;;;;;7.05;5.18;;;4.60;73.90;;;;;;4994495;28;20036;-73
2023/11/22 09:30:32;;;;;;;6.30;4.63;;;4.60;73.50;;;;;;4994354;28;20022;-74
2023/11/22 09:33:16;;;;;;;7.28;5.13;;;4.60;74.00;;;;;;4994429;28;20030;-74
2023/11/22 09:35:44;;;;;;;7.70;5.13;;;4.60;74.20;;;;;;4994351;28;20049;-73
2023/11/22 09:38:11;;;;;;;8.20;5.65;;;4.60;74.50;;;;;;4994244;28;20126;-74
2023/11/22 09:40:47;;;;;;;6.15;5.20;;;4.60;74.70;;;;;;4993853;28;20399;-73
2023/11/22 09:43:17;;;;;;;7.50;5.57;;;4.60;74.30;;;;;;5007266;28;20030;-73
2023/11/22 09:45:44;;;;;;;6.28;5.45;;;4.50;74.90;;;;;;5013520;28;20117;-74
2023/11/22 09:48:16;;;;;;;6.82;5.70;;;4.60;75.00;;;;;;5013464;28;20391;-73
2023/11/22 09:50:59;;;;;;;5.75;4.60;;;4.60;75.00;;;;;;4995790;28;20026;-74
2023/11/22 09:53:35;;;;;;;7.50;5.80;;;4.60;75.30;;;;;;5013457;28;20022;-73
2023/11/22 09:56:06;;;;;;;6.93;6.20;;;4.60;74.90;;;;;;5013483;28;20033;-73
2023/11/22 09:58:32;;;;;;;8.45;6.35;;;4.70;74.50;;;;;;5013035;28;20056;-73
2023/11/22 10:01:03;;;;;;;8.13;6.68;;;4.60;74.50;;;;;;5012911;28;20479;-74
2023/11/22 10:03:29;;;;;;;13.07;7.35;;;4.70;74.80;;;;;;5012427;28;20021;-73
2023/11/22 10:05:57;;;;;;;9.73;7.45;;;4.60;74.70;;;;;;5012739;28;20053;-73
2023/11/22 10:08:23;;;;;;;8.82;6.38;;;4.60;75.10;;;;;;5012939;28;20378;-74
2023/11/22 10:10:54;;;;;;;10.57;7.03;;;4.60;75.40;;;;;;5012757;28;20026;-75
2023/11/22 10:13:20;;;;;;;10.73;7.78;;;4.60;75.30;;;;;;5012971;28;20064;-73
2023/11/22 10:15:54;;;;;;;11.48;7.63;;;4.60;74.80;;;;;;5013156;28;20014;-73
2023/11/22 10:18:20;;;;;;;8.45;5.75;;;4.60;74.60;;;;;;5012637;28;20546;-72
2023/11/22 10:20:49;;;;;;;9.57;7.30;;;4.50;73.80;;;;;;5012714;28;20068;-73
2023/11/22 10:23:19;;;;;;;9.35;7.00;;;4.50;73.90;;;;;;5013037;28;20104;-75
2023/11/22 10:25:55;;;;;;;12.70;8.02;;;4.50;74.40;;;;;;5013321;28;20022;-75
2023/11/22 10:28:25;;;;;;;16.52;10.85;;;4.40;74.90;;;;;;5012825;28;20080;-73
2023/11/22 10:30:54;;;;;;;12.90;8.30;;;4.40;75.50;;;;;;5013171;28;20069;-75
2023/11/22 10:33:22;;;;;;;8.95;7.63;;;4.50;75.50;;;;;;5013037;28;20080;-75
2023/11/22 10:35:53;;;;;;;9.02;6.88;;;4.40;75.00;;;;;;5013284;28;20026;-74
2023/11/22 10:38:20;;;;;;;9.48;7.03;;;4.40;75.10;;;;;;5013053;28;20502;-75
2023/11/22 10:40:47;;;;;;;8.27;6.70;;;4.40;75.20;;;;;;5012801;28;20034;-74
2023/11/22 10:43:16;;;;;;;9.45;7.28;;;4.40;75.20;;;;;;5012628;28;20030;-73
2023/11/22 10:45:49;;;;;;;9.05;6.60;;;4.40;75.30;;;;;;5012695;28;20052;-73
2023/11/22 10:48:17;;;;;;;8.88;6.72;;;4.40;75.30;;;;;;5012727;28;20040;-73
2023/11/22 10:50:46;;;;;;;8.65;6.75;;;4.30;75.40;;;;;;5012619;28;20050;-73
2023/11/22 10:53:15;;;;;;;7.88;6.75;;;4.40;76.00;;;;;;5012377;28;20022;-73
2023/11/22 10:55:44;;;;;;;7.35;6.00;;;4.40;75.90;;;;;;5012415;28;20034;-73
2023/11/22 10:58:13;;;;;;;8.43;7.10;;;4.50;76.20;;;;;;5012280;28;20495;-74
2023/11/22 11:00:41;;;;;;;9.68;7.45;;;4.50;76.10;;;;;;5012328;28;20415;-74
2023/11/22 11:03:21;;;;;;;10.57;7.72;;;4.50;75.00;;;;;;5012108;28;20022;-74
2023/11/22 11:06:04;;;;;;;9.50;6.72;;;4.50;74.60;;;;;;5012508;28;20029;-74
2023/11/22 11:08:31;;;;;;;9.25;6.93;;;4.40;74.80;;;;;;5012305;28;20026;-74
2023/11/22 11:10:58;;;;;;;10.55;7.90;;;4.40;75.00;;;;;;5012152;28;20459;-74
2023/11/22 11:13:24;;;;;;;10.43;7.38;;;4.40;75.10;;;;;;4994504;28;20401;-74
2023/11/22 11:15:52;;;;;;;10.23;7.72;;;4.40;74.20;;;;;;5014059;28;20037;-75
2023/11/22 11:18:18;;;;;;;11.48;8.20;;;4.30;74.90;;;;;;5016397;28;20018;-73
2023/11/22 11:20:56;;;;;;;9.70;7.80;;;4.30;75.60;;;;;;5016374;28;20025;-74
2023/11/22 11:23:24;;;;;;;9.80;7.38;;;4.40;75.80;;;;;;5016430;28;20446;-75
2023/11/22 11:25:54;;;;;;;10.80;7.78;;;4.50;75.70;;;;;;5016292;28;20036;-75
2023/11/22 11:28:21;;;;;;;10.55;7.30;;;4.50;74.90;;;;;;5016334;28;20032;-75
2023/11/22 11:30:48;;;;;;;7.68;6.60;;;4.50;74.30;;;;;;4998777;28;20356;-74
2023/11/22 11:33:17;;;;;;;7.80;6.80;;;4.50;74.00;;;;;;5015927;28;20057;-74
2023/11/22 11:35:50;;;;;;;9.85;7.15;;;4.50;73.90;;;;;;5016030;28;20590;-74
2023/11/22 11:38:19;;;;;;;8.63;6.35;;;4.50;74.10;;;;;;5015932;28;20523;-74
2023/11/22 11:40:49;;;;;;;6.25;5.55;;;4.40;73.70;;;;;;5016075;28;20080;-74
2023/11/22 11:43:15;;;;;;;6.13;4.93;;;4.40;72.40;;;;;;5015747;28;20112;-74
2023/11/22 11:45:49;;;;;;;7.25;5.57;;;4.40;73.00;;;;;;5015395;28;20406;-74
2023/11/22 11:48:16;;;;;;;7.38;5.95;;;4.40;72.80;;;;;;5015757;28;20053;-74
2023/11/22 11:50:42;;;;;;;7.70;5.70;;;4.40;73.20;;;;;;5015591;28;20045;-74
2023/11/22 11:53:11;;;;;;;7.88;5.20;;;4.40;73.30;;;;;;5015292;28;20050;-74
2023/11/22 11:55:37;;;;;;;6.90;5.40;;;4.40;73.30;;;;;;5015376;28;20117;-74
2023/11/22 11:58:09;;;;;;;5.90;5.07;;;4.40;72.40;;;;;;5015225;28;20054;-74
2023/11/22 12:00:40;;;;;;;6.32;4.80;;;4.40;72.50;;;;;;5015087;28;20018;-74
2023/11/22 12:03:07;;;;;;;6.07;5.47;;;4.40;72.50;;;;;;5014974;28;20490;-75
2023/11/22 12:05:32;;;;;;;6.63;5.60;;;4.50;72.70;;;;;;5015024;28;20022;-74
2023/11/22 12:07:58;;;;;;;7.30;5.65;;;4.50;73.10;;;;;;5015027;28;20112;-75
2023/11/22 12:10:24;;;;;;;7.18;5.25;;;4.50;72.80;;;;;;5015136;28;20148;-75
2023/11/22 12:12:50;;;;;;;6.40;5.03;;;4.50;72.20;;;;;;5015238;28;20025;-74
2023/11/22 12:15:16;;;;;;;8.15;5.03;;;4.50;72.10;;;;;;5015334;28;20026;-75
2023/11/22 12:17:41;;;;;;;6.00;4.95;;;4.50;72.50;;;;;;4997370;28;20022;-75
2023/11/22 12:20:13;;;;;;;5.80;4.53;;;4.60;72.80;;;;;;5015043;28;20034;-75
2023/11/22 12:22:40;;;;;;;5.78;4.55;;;4.60;73.70;;;;;;5015149;28;20030;-75
2023/11/22 12:25:06;;;;;;;6.78;5.07;;;4.60;72.90;;;;;;5015286;28;20477;-75
2023/11/22 12:27:32;;;;;;;6.13;4.88;;;4.60;73.40;;;;;;5014400;28;20129;-75
2023/11/22 12:29:57;;;;;;;8.15;5.22;;;4.60;73.50;;;;;;5014734;28;20105;-75
2023/11/22 12:32:26;;;;;;;8.68;6.32;;;4.60;73.10;;;;;;5014784;28;20482;-75
2023/11/22 12:34:55;;;;;;;10.25;6.32;;;4.50;72.90;;;;;;5014773;28;20093;-75
2023/11/22 12:37:22;;;;;;;9.95;6.72;;;4.60;73.50;;;;;;5014976;28;20080;-74
2023/11/22 12:39:52;;;;;;;10.90;6.88;;;4.60;73.70;;;;;;5014807;28;20033;-76
2023/11/22 12:42:18;;;;;;;9.23;7.03;;;4.40;73.80;;;;;;5014956;28;20022;-77
2023/11/22 12:44:49;;;;;;;10.15;7.60;;;4.40;74.10;;;;;;5014842;28;20037;-74
2023/11/22 12:47:15;;;;;;;10.55;8.02;;;4.30;74.50;;;;;;5014716;28;20128;-75
2023/11/22 12:49:49;;;;;;;14.27;9.20;;;4.20;75.00;;;;;;5015322;28;20061;-82